Página principal
METAR-TAF:

METAR-TAF

Aeroportos :

Badajoz, Espanha

latitude: 38-53N, longitude: 006-49W, altura: 185 m

Observação actual do tempo

O boletim foi feito há 23 minutos, às 12:30 UTC
Vento 6 kt de es-nordeste, variando entre nor-nordeste e es-sudeste
Temperatura 36°C
Humidade 24%
Pressão 1021 hPa
Visibilidade 10 km ou mais
sem nuvens abaixo de 1500 metros e sem cumulonimbus

METAR: LEBZ 071230Z 06006KT 020V110 CAVOK 36/12 Q1021

Hora: 14:53 (12:53 UTC)

Previsão

O boletim foi feito há 4 horas e 53 minutos, às 08:00 UTC
Previsão válida de 07 às 09 UTC a 08 às 09 UTC
Vento 7 kt de nordeste
Visibilidade 10 km ou mais
sem nuvens abaixo de 1500 metros e sem cumulonimbus

TAF: LEBZ 070800Z 0709/0809 04007KT CAVOK TX39/0715Z TN21/0805Z

Observações e previsões do tempo de mais de 4000 aeroportos (mensagens METAR e TAF).

As estações disponíveis são os pontos amarelos e vermelhos sobre o mapa.

Mova o rato sobre o mapa para ver o nome da estação.

Depois clique no ponto para visualizar as observações e previsões meteorológicas.

Para alterar o mapa : clique nos botões verdes com uma cruz preta para aumentar o zoom; no botão verde com uma pitada de zoom; ou nas setas verdes para mapas adjacentes.


METAR-TAF: